createdAt,value
2018-01-03T00:01:02.584Z,71.14
2018-01-03T00:03:31.578Z,71.10
2018-01-03T00:06:01.569Z,70.82
2018-01-03T00:08:30.420Z,70.61
2018-01-03T00:10:59.305Z,70.12
2018-01-03T00:13:28.250Z,70.41
2018-01-03T00:15:57.075Z,70.31
2018-01-03T00:18:25.948Z,70.39
2018-01-03T00:20:54.958Z,70.31
2018-01-03T00:23:23.759Z,69.90
2018-01-03T00:25:52.611Z,70.46
2018-01-03T00:28:21.418Z,70.18
2018-01-03T00:31:04.942Z,70.06
2018-01-03T00:33:33.798Z,69.35
2018-01-03T00:36:02.628Z,68.77
2018-01-03T00:38:34.867Z,68.42
2018-01-03T00:41:03.708Z,68.13
2018-01-03T00:43:32.505Z,68.30
2018-01-03T00:46:01.436Z,68.71
2018-01-03T00:48:30.247Z,68.77
2018-01-03T00:50:59.124Z,68.86
2018-01-03T00:53:28.760Z,68.78
2018-01-03T00:55:58.604Z,69.28
2018-01-03T00:58:27.396Z,69.30
2018-01-03T01:00:57.134Z,69.63
2018-01-03T01:03:25.973Z,70.22
2018-01-03T01:06:07.805Z,70.94
2018-01-03T01:08:36.631Z,71.39
2018-01-03T01:11:05.442Z,71.93
2018-01-03T01:13:36.025Z,72.47
2018-01-03T01:16:04.999Z,72.70
2018-01-03T01:18:33.843Z,72.76
2018-01-03T01:21:03.657Z,73.04
2018-01-03T01:23:34.592Z,72.76
2018-01-03T01:26:03.447Z,73.10
2018-01-03T01:28:34.082Z,72.88
2018-01-03T01:31:02.956Z,72.86
2018-01-03T01:33:31.782Z,73.15
2018-01-03T01:38:34.576Z,73.46
2018-01-03T01:41:03.445Z,73.52
2018-01-03T01:43:32.406Z,73.48
2018-01-03T01:46:01.366Z,73.53
2018-01-03T01:48:30.211Z,73.73
2018-01-03T01:50:59.100Z,74.11
2018-01-03T01:53:27.996Z,74.08
2018-01-03T01:55:56.785Z,74.08
2018-01-03T01:58:26.525Z,74.50
2018-01-03T02:00:55.394Z,74.51
2018-01-03T02:03:24.274Z,74.91
2018-01-03T02:05:54.020Z,74.59
2018-01-03T02:08:22.889Z,74.42
2018-01-03T02:10:51.735Z,74.36
2018-01-03T02:13:20.598Z,74.64
2018-01-03T02:15:51.499Z,74.67
2018-01-03T02:18:20.339Z,74.70
2018-01-03T02:20:51.714Z,74.77
2018-01-03T02:23:20.543Z,74.91
2018-01-03T02:25:49.531Z,74.84
2018-01-03T02:28:18.382Z,74.53
2018-01-03T02:30:47.187Z,74.46
2018-01-03T02:33:15.999Z,74.44
2018-01-03T02:35:45.031Z,74.29
2018-01-03T02:38:25.530Z,74.45
2018-01-03T02:43:28.326Z,74.50
2018-01-03T02:46:16.638Z,74.67
2018-01-03T02:48:45.457Z,74.54
2018-01-03T02:51:14.281Z,74.67
2018-01-03T02:53:45.180Z,74.81
2018-01-03T02:56:14.099Z,74.89
2018-01-03T02:58:42.955Z,74.92
2018-01-03T03:01:11.800Z,75.10
2018-01-03T03:03:44.046Z,75.48
2018-01-03T03:06:13.121Z,76.37
2018-01-03T03:08:42.040Z,76.75
2018-01-03T03:11:10.924Z,76.42
2018-01-03T03:13:39.845Z,76.25
2018-01-03T03:16:08.625Z,76.50
2018-01-03T03:18:37.485Z,76.66
2018-01-03T03:21:16.044Z,76.50
2018-01-03T03:23:44.909Z,76.68
2018-01-03T03:26:13.757Z,77.22
2018-01-03T03:28:43.467Z,77.31
2018-01-03T03:31:29.088Z,77.36
2018-01-03T03:33:57.912Z,77.76
2018-01-03T03:36:26.706Z,77.85
2018-01-03T03:38:55.536Z,78.04
2018-01-03T03:41:33.846Z,78.69
2018-01-03T03:44:02.695Z,78.78
2018-01-03T03:46:31.482Z,79.17
2018-01-03T03:49:03.136Z,79.16
2018-01-03T03:51:32.076Z,79.74
2018-01-03T03:54:00.916Z,79.89
2018-01-03T03:56:29.719Z,80.02
2018-01-03T03:58:58.704Z,79.90
2018-01-03T04:01:27.607Z,79.79
2018-01-03T04:03:58.160Z,80.14
2018-01-03T04:06:26.968Z,81.49
2018-01-03T04:08:55.857Z,81.71
2018-01-03T04:11:31.188Z,82.03
2018-01-03T04:13:59.982Z,82.05
2018-01-03T04:16:28.790Z,81.98
2018-01-03T04:18:58.473Z,81.90
2018-01-03T04:21:28.307Z,81.84
2018-01-03T04:23:57.138Z,81.80
2018-01-03T04:26:27.703Z,82.56
2018-01-03T04:28:56.568Z,82.53
2018-01-03T04:31:25.496Z,83.08
2018-01-03T04:33:55.200Z,82.88
2018-01-03T04:36:24.116Z,81.45
2018-01-03T04:38:52.931Z,80.91
2018-01-03T04:41:23.845Z,81.15
2018-01-03T04:43:52.685Z,81.16
2018-01-03T04:46:21.516Z,81.05
2018-01-03T04:48:56.336Z,80.72
2018-01-03T04:51:25.250Z,80.36
2018-01-03T04:53:54.087Z,80.37
2018-01-03T04:56:22.996Z,80.35
2018-01-03T04:58:57.604Z,81.75
2018-01-03T05:01:28.245Z,81.53
2018-01-03T05:03:57.094Z,81.25
2018-01-03T05:06:26.015Z,81.08
2018-01-03T05:08:59.427Z,81.15
2018-01-03T05:11:28.242Z,81.26
2018-01-03T05:14:02.377Z,81.36
2018-01-03T05:16:31.170Z,81.28
2018-01-03T05:19:00.057Z,81.18
2018-01-03T05:21:28.982Z,80.78
2018-01-03T05:23:57.841Z,80.38
2018-01-03T05:26:26.752Z,80.23
2018-01-03T05:28:55.687Z,80.17
2018-01-03T05:31:24.677Z,80.11
2018-01-03T05:33:53.527Z,80.28
2018-01-03T05:36:22.557Z,80.33
2018-01-03T05:38:51.465Z,80.48
2018-01-03T05:41:20.301Z,80.54
2018-01-03T05:43:51.191Z,80.52
2018-01-03T05:46:20.105Z,80.20
2018-01-03T05:48:48.962Z,80.11
2018-01-03T05:51:20.623Z,80.27
2018-01-03T05:53:49.454Z,80.10
2018-01-03T05:56:18.489Z,79.84
2018-01-03T06:01:21.637Z,77.88
2018-01-03T06:03:50.496Z,77.96
2018-01-03T06:06:20.958Z,77.98
2018-01-03T06:08:49.763Z,77.84
2018-01-03T06:11:22.443Z,77.06
2018-01-03T06:13:51.281Z,76.98
2018-01-03T06:16:20.076Z,76.56
2018-01-03T06:18:50.620Z,76.53
2018-01-03T06:21:19.451Z,76.87
2018-01-03T06:23:48.276Z,78.20
2018-01-03T06:28:53.572Z,80.06
2018-01-03T06:31:22.360Z,80.04
2018-01-03T06:33:51.266Z,80.20
2018-01-03T06:36:20.115Z,80.08
2018-01-03T06:38:48.946Z,80.03
2018-01-03T06:41:17.775Z,79.82
2018-01-03T06:43:47.504Z,79.41
2018-01-03T06:46:16.329Z,78.89
2018-01-03T06:48:45.186Z,76.58
2018-01-03T06:51:14.869Z,76.21
2018-01-03T06:53:43.678Z,75.11
2018-01-03T06:56:12.499Z,73.60
2018-01-03T06:58:43.133Z,73.25
2018-01-03T07:01:11.974Z,73.33
2018-01-03T07:03:40.832Z,73.49
2018-01-03T07:06:11.574Z,73.53
2018-01-03T07:08:40.408Z,72.64
2018-01-03T07:11:18.549Z,72.31
2018-01-03T07:13:53.257Z,72.24
2018-01-03T07:16:22.346Z,71.58
2018-01-03T07:18:51.407Z,71.53
2018-01-03T07:21:20.517Z,71.01
2018-01-03T07:23:49.525Z,70.76
2018-01-03T07:26:18.572Z,71.04
2018-01-03T07:28:47.635Z,70.79
2018-01-03T07:31:22.694Z,71.30
2018-01-03T07:33:52.426Z,70.58
2018-01-03T07:36:21.820Z,70.40
2018-01-03T07:38:50.892Z,69.66
2018-01-03T07:41:19.810Z,69.64
2018-01-03T07:43:48.791Z,69.63
2018-01-03T07:46:19.411Z,69.27
2018-01-03T07:48:49.156Z,68.86
2018-01-03T07:51:19.250Z,68.88
2018-01-03T07:53:48.608Z,68.64
2018-01-03T07:56:21.586Z,68.55
2018-01-03T07:58:50.528Z,68.53
2018-01-03T08:01:19.662Z,68.10
2018-01-03T08:03:48.603Z,68.20
2018-01-03T08:06:17.472Z,68.06
2018-01-03T08:08:46.272Z,68.18
2018-01-03T08:11:15.042Z,67.93
2018-01-03T08:13:44.042Z,67.87
2018-01-03T08:16:12.877Z,68.14
2018-01-03T08:18:41.768Z,68.24
2018-01-03T08:21:12.293Z,67.55
2018-01-03T08:23:41.231Z,66.90
2018-01-03T08:26:10.022Z,66.83
2018-01-03T08:28:39.649Z,66.67
2018-01-03T08:31:08.496Z,66.12
2018-01-03T08:33:37.389Z,65.75
2018-01-03T08:36:08.072Z,65.46
2018-01-03T08:38:36.938Z,64.85
2018-01-03T08:41:05.714Z,64.06
2018-01-03T08:43:34.583Z,63.59
2018-01-03T08:46:03.368Z,63.68
2018-01-03T08:48:32.154Z,62.79
2018-01-03T08:51:01.840Z,63.15
2018-01-03T08:53:30.618Z,62.55
2018-01-03T08:55:59.429Z,62.71
2018-01-03T08:58:28.259Z,62.69
2018-01-03T09:00:57.032Z,62.59
2018-01-03T09:03:30.047Z,63.30
2018-01-03T09:05:59.964Z,63.50
2018-01-03T09:08:28.791Z,64.01
2018-01-03T09:10:59.492Z,64.53
2018-01-03T09:13:28.280Z,64.39
2018-01-03T09:15:57.081Z,63.15
2018-01-03T09:18:29.957Z,62.63
2018-01-03T09:20:58.761Z,62.21
2018-01-03T09:23:27.560Z,62.86
2018-01-03T09:25:58.031Z,63.43
2018-01-03T09:28:26.836Z,63.49
2018-01-03T09:30:55.630Z,63.44
2018-01-03T09:33:24.615Z,63.90
2018-01-03T09:35:53.447Z,63.98
2018-01-03T09:38:22.215Z,64.38
2018-01-03T09:40:52.666Z,64.87
2018-01-03T09:43:21.549Z,65.13
2018-01-03T09:45:50.354Z,64.86
2018-01-03T09:48:20.976Z,64.90
2018-01-03T09:50:49.803Z,64.63
2018-01-03T09:53:18.675Z,64.79
2018-01-03T09:55:47.498Z,64.22
2018-01-03T09:58:16.294Z,63.91
2018-01-03T10:00:45.095Z,63.88
2018-01-03T10:03:15.167Z,63.66
2018-01-03T10:05:43.999Z,63.84
2018-01-03T10:08:12.939Z,64.02
2018-01-03T10:10:42.738Z,64.01
2018-01-03T10:13:11.502Z,64.13
2018-01-03T10:15:40.286Z,64.38
2018-01-03T10:18:09.137Z,64.42
2018-01-03T10:20:37.903Z,65.07
2018-01-03T10:23:06.717Z,65.26
2018-01-03T10:25:35.642Z,64.96
2018-01-03T10:28:04.426Z,64.95
2018-01-03T10:30:33.281Z,65.07
2018-01-03T10:33:03.070Z,65.28
2018-01-03T10:35:31.851Z,65.65
2018-01-03T10:38:00.637Z,65.18
2018-01-03T10:40:30.294Z,65.12
2018-01-03T10:42:59.077Z,65.15
2018-01-03T10:45:27.895Z,65.17
2018-01-03T10:47:57.546Z,64.59
2018-01-03T10:50:26.342Z,65.10
2018-01-03T10:52:55.129Z,64.92
2018-01-03T10:55:23.950Z,64.61
2018-01-03T10:57:52.818Z,64.57
2018-01-03T11:00:21.627Z,64.18
2018-01-03T11:02:50.635Z,64.07
2018-01-03T11:05:19.438Z,63.63
2018-01-03T11:07:48.243Z,63.53
2018-01-03T11:10:19.506Z,63.30
2018-01-03T11:12:48.342Z,63.18
2018-01-03T11:15:17.158Z,63.89
2018-01-03T11:17:46.029Z,63.69
2018-01-03T11:20:14.848Z,63.44
2018-01-03T11:22:43.681Z,63.36
2018-01-03T11:25:12.517Z,63.20
2018-01-03T11:27:41.296Z,63.34
2018-01-03T11:30:10.104Z,63.29
2018-01-03T11:32:39.067Z,63.56
2018-01-03T11:35:07.865Z,63.25
2018-01-03T11:37:36.781Z,63.45
2018-01-03T11:40:05.607Z,63.66
2018-01-03T11:42:34.360Z,63.39
2018-01-03T11:45:03.195Z,63.60
2018-01-03T11:47:32.023Z,63.63
2018-01-03T11:50:00.815Z,63.72
2018-01-03T11:52:29.611Z,63.49
2018-01-03T11:54:59.239Z,63.29
2018-01-03T11:57:28.090Z,63.37
2018-01-03T11:59:56.908Z,63.29
2018-01-03T12:02:25.769Z,63.69
2018-01-03T12:04:54.562Z,63.68
2018-01-03T12:07:23.413Z,62.89
2018-01-03T12:09:52.258Z,62.83
2018-01-03T12:12:21.039Z,62.86
2018-01-03T12:14:49.903Z,62.52
2018-01-03T12:17:19.604Z,62.67
2018-01-03T12:19:48.443Z,62.78
2018-01-03T12:22:17.297Z,63.07
2018-01-03T12:24:46.201Z,63.30
2018-01-03T12:27:15.066Z,63.70
2018-01-03T12:29:43.886Z,64.20
2018-01-03T12:32:12.796Z,63.95
2018-01-03T12:34:41.562Z,64.07
2018-01-03T12:37:10.388Z,64.19
2018-01-03T12:39:41.890Z,64.36
2018-01-03T12:42:10.675Z,64.83
2018-01-03T12:44:39.505Z,65.12
2018-01-03T12:47:08.445Z,64.95
2018-01-03T12:49:37.292Z,65.36
2018-01-03T12:52:06.129Z,65.54
2018-01-03T12:54:36.990Z,65.76
2018-01-03T12:57:05.820Z,66.47
2018-01-03T12:59:34.615Z,65.99
2018-01-03T13:02:04.378Z,66.04
2018-01-03T13:04:33.295Z,66.74
2018-01-03T13:07:02.115Z,66.24
2018-01-03T13:09:30.984Z,65.94
2018-01-03T13:11:59.802Z,65.96
2018-01-03T13:14:28.649Z,66.46
2018-01-03T13:16:57.511Z,66.38
2018-01-03T13:19:26.313Z,65.92
2018-01-03T13:21:55.126Z,65.94
2018-01-03T13:24:25.693Z,66.67
2018-01-03T13:26:54.503Z,66.30
2018-01-03T13:29:23.286Z,66.67
2018-01-03T13:31:53.131Z,67.16
2018-01-03T13:34:21.928Z,66.94
2018-01-03T13:36:50.777Z,67.00
2018-01-03T13:39:20.410Z,67.42
2018-01-03T13:41:49.217Z,67.79
2018-01-03T13:44:18.034Z,67.48
2018-01-03T13:46:46.973Z,68.11
2018-01-03T13:49:15.804Z,68.68
2018-01-03T13:51:44.639Z,68.36
2018-01-03T13:54:13.482Z,68.11
2018-01-03T13:56:42.296Z,68.27
2018-01-03T13:59:11.125Z,67.98
2018-01-03T14:01:40.799Z,68.31
2018-01-03T14:04:09.680Z,68.18
2018-01-03T14:06:38.500Z,68.05
2018-01-03T14:09:09.015Z,68.04
2018-01-03T14:11:37.854Z,67.99
2018-01-03T14:14:07.713Z,67.91
2018-01-03T14:16:36.583Z,68.09
2018-01-03T14:19:05.404Z,67.71
2018-01-03T14:21:34.283Z,67.41
2018-01-03T14:24:03.437Z,67.62
2018-01-03T14:26:32.256Z,67.28
2018-01-03T14:29:01.087Z,66.35
2018-01-03T14:31:30.771Z,66.38
2018-01-03T14:33:59.591Z,66.44
2018-01-03T14:36:28.421Z,66.58
2018-01-03T14:38:57.259Z,66.73
2018-01-03T14:41:26.096Z,66.67
2018-01-03T14:43:54.890Z,67.35
2018-01-03T14:46:23.745Z,67.63
2018-01-03T14:48:52.579Z,66.94
2018-01-03T14:51:22.391Z,66.96
2018-01-03T14:53:51.269Z,67.08
2018-01-03T14:56:20.086Z,67.73
2018-01-03T14:58:48.909Z,67.39
2018-01-03T15:01:18.593Z,67.08
2018-01-03T15:03:47.365Z,66.92
2018-01-03T15:06:16.209Z,66.29
2018-01-03T15:08:46.199Z,66.42
2018-01-03T15:11:15.029Z,67.36
2018-01-03T15:13:43.853Z,67.95
2018-01-03T15:18:46.718Z,68.26
2018-01-03T15:21:15.542Z,68.62
2018-01-03T15:23:44.498Z,68.35
2018-01-03T15:26:13.306Z,67.72
2018-01-03T15:28:42.112Z,68.37
2018-01-03T15:31:11.921Z,68.38
2018-01-03T15:33:40.742Z,67.94
2018-01-03T15:36:09.600Z,67.92
2018-01-03T15:38:42.740Z,68.20
2018-01-03T15:41:11.544Z,68.19
2018-01-03T15:43:40.454Z,67.75
2018-01-03T15:46:09.421Z,67.52
2018-01-03T15:48:38.264Z,68.03
2018-01-03T15:51:07.099Z,68.55
2018-01-03T15:53:36.814Z,68.51
2018-01-03T15:56:05.642Z,68.89
2018-01-03T15:58:34.510Z,69.30
2018-01-03T16:01:03.414Z,69.26
2018-01-03T16:03:32.232Z,69.41
2018-01-03T16:06:01.080Z,68.80
2018-01-03T16:08:30.074Z,68.66
2018-01-03T16:10:58.890Z,68.72
2018-01-03T16:13:27.753Z,69.07
2018-01-03T16:15:58.812Z,69.21
2018-01-03T16:18:27.634Z,69.50
2018-01-03T16:20:56.577Z,69.57
2018-01-03T16:23:26.256Z,69.36
2018-01-03T16:25:55.408Z,68.95
2018-01-03T16:28:24.275Z,69.32
2018-01-03T16:30:53.117Z,69.35
2018-01-03T16:33:21.985Z,68.73
2018-01-03T16:35:50.837Z,67.77
2018-01-03T16:38:19.729Z,67.99
2018-01-03T16:40:48.552Z,67.81
2018-01-03T16:43:17.524Z,67.77
2018-01-03T16:45:47.335Z,67.87
2018-01-03T16:48:16.203Z,67.99
2018-01-03T16:50:44.998Z,68.14
2018-01-03T16:53:13.869Z,68.20
2018-01-03T16:55:42.833Z,68.68
2018-01-03T16:58:11.669Z,68.72
2018-01-03T17:00:40.545Z,68.70
2018-01-03T17:03:09.414Z,68.56
2018-01-03T17:05:38.374Z,68.55
2018-01-03T17:08:09.818Z,68.69
2018-01-03T17:10:38.715Z,68.72
2018-01-03T17:13:07.548Z,68.57
2018-01-03T17:15:37.258Z,68.71
2018-01-03T17:18:06.062Z,68.26
2018-01-03T17:20:34.968Z,68.19
2018-01-03T17:23:03.856Z,68.25
2018-01-03T17:25:32.672Z,67.82
2018-01-03T17:28:01.504Z,67.89
2018-01-03T17:30:31.341Z,67.96
2018-01-03T17:33:00.211Z,68.11
2018-01-03T17:35:29.065Z,68.62
2018-01-03T17:37:58.971Z,69.06
2018-01-03T17:40:31.436Z,69.43
2018-01-03T17:43:00.306Z,70.02
2018-01-03T17:45:29.133Z,70.17
2018-01-03T17:47:58.006Z,69.96
2018-01-03T17:50:32.950Z,69.64
2018-01-03T17:53:01.781Z,70.24
2018-01-03T17:55:30.633Z,70.53
2018-01-03T17:57:59.500Z,70.54
2018-01-03T18:00:28.428Z,70.71
2018-01-03T18:02:57.294Z,70.73
2018-01-03T18:05:27.805Z,70.24
2018-01-03T18:07:56.677Z,69.42
2018-01-03T18:10:25.569Z,69.17
2018-01-03T18:12:54.452Z,69.36
2018-01-03T18:15:23.333Z,69.82
2018-01-03T18:17:52.192Z,69.92
2018-01-03T18:20:21.062Z,70.22
2018-01-03T18:22:49.986Z,70.37
2018-01-03T18:25:18.814Z,70.70
2018-01-03T18:27:48.135Z,69.23
2018-01-03T18:30:16.966Z,69.57
2018-01-03T18:32:45.904Z,69.60
2018-01-03T18:35:16.585Z,69.52
2018-01-03T18:37:45.484Z,69.37
2018-01-03T18:40:14.355Z,69.70
2018-01-03T18:42:43.455Z,70.16
2018-01-03T18:45:12.331Z,70.41
2018-01-03T18:47:41.237Z,70.59
2018-01-03T18:50:10.282Z,70.36
2018-01-03T18:52:39.128Z,70.15
2018-01-03T18:55:07.993Z,69.47
2018-01-03T18:57:37.841Z,69.80
2018-01-03T19:00:06.846Z,70.28
2018-01-03T19:02:35.860Z,70.25
2018-01-03T19:05:06.522Z,69.52
2018-01-03T19:07:35.450Z,69.21
2018-01-03T19:10:04.359Z,69.09
2018-01-03T19:12:33.273Z,68.89
2018-01-03T19:15:02.148Z,69.48
2018-01-03T19:17:32.193Z,69.61
2018-01-03T19:20:01.082Z,69.53
2018-01-03T19:22:29.941Z,69.63
2018-01-03T19:24:58.852Z,70.15
2018-01-03T19:27:27.805Z,70.34
2018-01-03T19:29:56.698Z,70.51
2018-01-03T19:32:25.658Z,70.54
2018-01-03T19:34:56.213Z,70.31
2018-01-03T19:37:25.055Z,70.07
2018-01-03T19:39:53.971Z,70.69
2018-01-03T19:42:23.814Z,70.76
2018-01-03T19:44:52.698Z,70.65
2018-01-03T19:47:21.600Z,71.30
2018-01-03T19:49:50.687Z,71.14
2018-01-03T19:52:19.889Z,71.13
2018-01-03T19:54:49.016Z,70.70
2018-01-03T19:57:18.890Z,70.84
2018-01-03T19:59:47.911Z,71.40
2018-01-03T20:02:16.928Z,71.71
2018-01-03T20:04:48.495Z,71.43
2018-01-03T20:07:17.603Z,71.92
2018-01-03T20:09:46.941Z,71.96
2018-01-03T20:12:16.965Z,71.94
2018-01-03T20:14:46.875Z,71.93
2018-01-03T20:17:16.131Z,72.30
2018-01-03T20:19:46.306Z,72.54
2018-01-03T20:22:15.192Z,71.88
2018-01-03T20:24:52.227Z,72.40
2018-01-03T20:27:21.321Z,72.93
2018-01-03T20:29:50.295Z,73.21
2018-01-03T20:32:20.188Z,73.20
2018-01-03T20:34:50.059Z,73.60
2018-01-03T20:37:19.752Z,73.88
2018-01-03T20:39:52.210Z,73.73
2018-01-03T20:42:22.093Z,73.70
2018-01-03T20:44:51.128Z,73.17
2018-01-03T20:47:20.530Z,73.48
2018-01-03T20:49:49.523Z,73.93
2018-01-03T20:52:18.526Z,74.19
2018-01-03T20:54:48.568Z,74.15
2018-01-03T20:57:17.595Z,74.01
2018-01-03T20:59:52.772Z,74.07
2018-01-03T21:02:22.548Z,74.50
2018-01-03T21:04:51.675Z,74.89
2018-01-03T21:07:22.680Z,74.83
2018-01-03T21:09:52.796Z,75.09
2018-01-03T21:12:22.132Z,75.03
2018-01-03T21:14:52.731Z,74.41
2018-01-03T21:17:22.641Z,74.67
2018-01-03T21:19:53.709Z,74.48
2018-01-03T21:22:22.561Z,73.91
2018-01-03T21:24:51.461Z,73.62
2018-01-03T21:27:22.493Z,73.07
2018-01-03T21:29:51.543Z,73.36
2018-01-03T21:32:20.392Z,72.71
2018-01-03T21:34:50.520Z,72.45
2018-01-03T21:37:20.517Z,72.40
2018-01-03T21:39:49.532Z,72.57
2018-01-03T21:42:18.522Z,72.41
2018-01-03T21:44:48.263Z,72.61
2018-01-03T21:47:18.246Z,72.78
2018-01-03T21:49:47.493Z,72.72
2018-01-03T21:52:16.641Z,72.72
2018-01-03T21:54:45.647Z,73.01
2018-01-03T21:57:16.714Z,73.06
2018-01-03T21:59:45.711Z,73.65
2018-01-03T22:02:14.730Z,73.40
2018-01-03T22:04:44.588Z,73.27
2018-01-03T22:07:13.916Z,73.42
2018-01-03T22:09:42.926Z,73.28
2018-01-03T22:12:11.907Z,73.45
2018-01-03T22:14:40.901Z,72.97
2018-01-03T22:17:09.749Z,72.86
2018-01-03T22:19:38.749Z,72.46
2018-01-03T22:22:08.491Z,72.16
2018-01-03T22:24:37.585Z,72.52
2018-01-03T22:27:06.531Z,72.50
2018-01-03T22:29:35.552Z,72.53
2018-01-03T22:32:04.739Z,72.54
2018-01-03T22:34:34.823Z,72.30
2018-01-03T22:37:04.029Z,72.40
2018-01-03T22:39:33.171Z,72.31
2018-01-03T22:42:02.149Z,72.48
2018-01-03T22:44:31.285Z,71.82
2018-01-03T22:47:00.216Z,71.88
2018-01-03T22:49:30.043Z,71.27
2018-01-03T22:51:59.965Z,71.04
2018-01-03T22:54:29.057Z,70.76
2018-01-03T22:56:58.149Z,70.88
2018-01-03T22:59:27.144Z,71.03
2018-01-03T23:01:56.141Z,71.40
2018-01-03T23:04:26.389Z,71.20
2018-01-03T23:06:55.805Z,71.36
2018-01-03T23:09:24.866Z,70.98
2018-01-03T23:11:54.671Z,71.19
2018-01-03T23:14:23.685Z,71.05
2018-01-03T23:16:52.871Z,71.35
2018-01-03T23:19:22.781Z,71.09
2018-01-03T23:21:53.116Z,71.39
2018-01-03T23:24:22.308Z,71.33
2018-01-03T23:26:51.329Z,71.22
2018-01-03T23:29:20.434Z,71.14
2018-01-03T23:31:49.329Z,71.59
2018-01-03T23:34:21.685Z,71.47
2018-01-03T23:36:50.902Z,71.75
2018-01-03T23:39:19.950Z,71.67
2018-01-03T23:41:49.870Z,71.75
2018-01-03T23:44:18.859Z,72.08
2018-01-03T23:46:48.653Z,72.23
2018-01-03T23:49:20.227Z,72.44
2018-01-03T23:51:50.343Z,72.71
2018-01-03T23:54:20.197Z,73.48
2018-01-03T23:56:49.978Z,74.42
2018-01-03T23:59:19.222Z,74.66
